createdAt,value
2022-07-29T00:01:43.417Z,21.15
2022-07-29T00:04:11.512Z,21.12
2022-07-29T00:06:39.512Z,21.08
2022-07-29T00:09:07.793Z,21.05
2022-07-29T00:11:35.692Z,21.00
2022-07-29T00:14:03.573Z,20.98
2022-07-29T00:16:32.993Z,20.96
2022-07-29T00:19:02.448Z,20.88
2022-07-29T00:21:30.601Z,20.83
2022-07-29T00:23:58.539Z,20.77
2022-07-29T00:26:28.692Z,20.73
2022-07-29T00:29:17.399Z,20.67
2022-07-29T00:31:45.988Z,20.65
2022-07-29T00:34:27.870Z,20.63
2022-07-29T00:36:55.802Z,20.62
2022-07-29T00:39:23.770Z,20.62
2022-07-29T00:41:51.856Z,20.63
2022-07-29T00:44:21.050Z,20.65
2022-07-29T00:46:50.590Z,20.64
2022-07-29T00:49:18.768Z,20.63
2022-07-29T00:51:46.825Z,20.61
2022-07-29T00:54:15.779Z,20.56
2022-07-29T00:56:44.030Z,20.53
2022-07-29T00:59:11.949Z,20.51
2022-07-29T01:01:39.929Z,20.47
2022-07-29T01:04:09.357Z,20.42
2022-07-29T01:06:37.346Z,20.37
2022-07-29T01:09:05.278Z,20.33
2022-07-29T01:11:33.272Z,20.29
2022-07-29T01:14:01.240Z,20.23
2022-07-29T01:16:33.003Z,20.22
2022-07-29T01:19:04.710Z,20.20
2022-07-29T01:21:48.800Z,20.16
2022-07-29T01:24:31.594Z,20.11
2022-07-29T01:27:00.929Z,20.12
2022-07-29T01:29:37.834Z,20.04
2022-07-29T01:32:09.228Z,20.10
2022-07-29T01:34:58.403Z,20.04
2022-07-29T01:37:28.418Z,19.94
2022-07-29T01:39:57.644Z,19.91
2022-07-29T01:42:28.921Z,19.99
2022-07-29T01:44:59.474Z,19.82
2022-07-29T01:47:29.097Z,19.93
2022-07-29T01:49:57.222Z,19.90
2022-07-29T01:52:36.195Z,19.90
2022-07-29T01:55:08.760Z,19.89
2022-07-29T01:57:36.711Z,19.82
2022-07-29T02:00:06.974Z,19.85
2022-07-29T02:02:35.045Z,19.83
2022-07-29T02:05:03.085Z,19.81
2022-07-29T02:07:31.610Z,19.83
2022-07-29T02:09:59.573Z,19.82
2022-07-29T02:12:27.869Z,19.77
2022-07-29T02:14:56.093Z,19.75
2022-07-29T02:17:27.262Z,19.70
2022-07-29T02:19:55.677Z,19.59
2022-07-29T02:22:23.853Z,19.64
2022-07-29T02:24:52.332Z,19.64
2022-07-29T02:27:20.511Z,19.51
2022-07-29T02:29:48.718Z,19.56
2022-07-29T02:32:16.705Z,19.63
2022-07-29T02:34:56.583Z,19.64
2022-07-29T02:37:24.559Z,19.62
2022-07-29T02:39:52.667Z,19.62
2022-07-29T02:42:20.628Z,19.63
2022-07-29T02:44:48.600Z,19.67
2022-07-29T02:47:20.047Z,19.72
2022-07-29T02:49:53.479Z,19.77
2022-07-29T02:52:24.019Z,19.78
2022-07-29T02:54:55.946Z,19.78
2022-07-29T02:57:29.076Z,19.78
2022-07-29T02:59:57.089Z,19.80
2022-07-29T03:02:25.038Z,19.82
2022-07-29T03:04:54.483Z,19.85
2022-07-29T03:07:22.491Z,19.89
2022-07-29T03:09:50.479Z,19.91
2022-07-29T03:12:18.434Z,19.93
2022-07-29T03:14:47.210Z,19.96
2022-07-29T03:17:15.163Z,19.99
2022-07-29T03:19:43.093Z,20.02
2022-07-29T03:22:12.541Z,20.02
2022-07-29T03:24:40.485Z,20.05
2022-07-29T03:27:08.403Z,20.08
2022-07-29T03:29:36.386Z,20.11
2022-07-29T03:32:07.368Z,20.13
2022-07-29T03:34:36.581Z,20.17
2022-07-29T03:37:04.541Z,20.16
2022-07-29T03:39:35.722Z,20.13
2022-07-29T03:42:03.685Z,20.16
2022-07-29T03:44:31.868Z,20.19
2022-07-29T03:47:00.895Z,20.18
2022-07-29T03:49:29.011Z,20.16
2022-07-29T03:51:57.208Z,20.14
2022-07-29T03:54:25.146Z,20.10
2022-07-29T03:56:54.467Z,20.07
2022-07-29T03:59:22.561Z,20.00
2022-07-29T04:01:50.570Z,20.07
2022-07-29T04:04:19.107Z,20.00
2022-07-29T04:06:48.160Z,20.07
2022-07-29T04:09:17.986Z,20.06
2022-07-29T04:11:59.843Z,19.97
2022-07-29T04:14:33.209Z,20.06
2022-07-29T04:17:01.451Z,20.05
2022-07-29T04:19:29.537Z,20.03
2022-07-29T04:21:57.670Z,20.03
2022-07-29T04:24:25.838Z,20.00
2022-07-29T04:26:54.048Z,20.02
2022-07-29T04:29:21.993Z,20.02
2022-07-29T04:31:51.338Z,20.04
2022-07-29T04:34:19.964Z,20.03
2022-07-29T04:36:48.154Z,20.05
2022-07-29T04:39:22.192Z,20.06
2022-07-29T04:41:51.206Z,20.03
2022-07-29T04:44:21.781Z,20.05
2022-07-29T04:46:58.739Z,20.05
2022-07-29T04:49:40.363Z,20.04
2022-07-29T04:52:08.607Z,20.02
2022-07-29T04:54:36.788Z,20.02
2022-07-29T04:57:12.777Z,20.05
2022-07-29T04:59:40.847Z,20.05
2022-07-29T05:02:10.358Z,20.08
2022-07-29T05:04:38.427Z,20.08
2022-07-29T05:07:06.409Z,20.08
2022-07-29T05:09:34.414Z,20.06
2022-07-29T05:12:02.798Z,20.05
2022-07-29T05:14:30.703Z,20.06
2022-07-29T05:16:58.771Z,20.01
2022-07-29T05:22:33.551Z,19.93
2022-07-29T05:25:05.523Z,20.01
2022-07-29T05:27:37.266Z,20.04
2022-07-29T05:30:06.078Z,20.06
2022-07-29T05:32:34.133Z,20.11
2022-07-29T05:35:03.493Z,20.16
2022-07-29T05:40:21.284Z,20.23
2022-07-29T05:43:08.076Z,20.32
2022-07-29T05:45:36.148Z,20.39
2022-07-29T05:48:18.091Z,20.45
2022-07-29T05:50:47.399Z,20.52
2022-07-29T05:53:19.844Z,20.57
2022-07-29T05:55:49.012Z,20.61
2022-07-29T05:58:17.048Z,20.62
2022-07-29T06:00:45.151Z,20.74
2022-07-29T06:03:13.513Z,20.74
2022-07-29T06:05:41.513Z,20.84
2022-07-29T06:08:10.894Z,20.87
2022-07-29T06:10:48.335Z,20.87
2022-07-29T06:13:17.069Z,20.66
2022-07-29T06:15:45.168Z,20.96
2022-07-29T06:18:14.375Z,20.99
2022-07-29T06:20:48.177Z,21.01
2022-07-29T06:23:17.538Z,21.07
2022-07-29T06:26:06.630Z,21.10
2022-07-29T06:28:34.778Z,21.13
2022-07-29T06:31:02.955Z,21.16
2022-07-29T06:33:31.103Z,21.21
2022-07-29T06:35:59.161Z,21.28
2022-07-29T06:38:33.930Z,21.32
2022-07-29T06:41:10.928Z,21.36
2022-07-29T06:43:50.557Z,21.41
2022-07-29T06:46:19.593Z,21.54
2022-07-29T06:48:48.386Z,21.58
2022-07-29T06:51:22.166Z,21.65
2022-07-29T06:53:59.525Z,21.61
2022-07-29T06:56:31.589Z,21.83
2022-07-29T06:59:02.218Z,21.94
2022-07-29T07:01:30.439Z,22.13
2022-07-29T07:03:58.506Z,22.18
2022-07-29T07:06:26.530Z,22.27
2022-07-29T07:08:55.960Z,22.29
2022-07-29T07:11:23.915Z,22.35
2022-07-29T07:14:07.761Z,22.46
2022-07-29T07:16:54.559Z,22.60
2022-07-29T07:19:22.713Z,22.73
2022-07-29T07:21:50.751Z,22.79
2022-07-29T07:24:20.064Z,22.76
2022-07-29T07:26:48.191Z,22.87
2022-07-29T07:29:31.978Z,22.82
2022-07-29T07:32:03.132Z,22.78
2022-07-29T07:34:31.539Z,22.82
2022-07-29T07:36:59.499Z,22.90
2022-07-29T07:39:28.870Z,22.99
2022-07-29T07:42:11.074Z,23.11
2022-07-29T07:44:57.314Z,23.20
2022-07-29T07:47:50.631Z,23.30
2022-07-29T07:50:19.548Z,23.39
2022-07-29T07:52:51.328Z,23.48
2022-07-29T07:55:20.802Z,23.56
2022-07-29T07:58:01.921Z,23.53
2022-07-29T08:00:29.943Z,23.58
2022-07-29T08:02:57.900Z,23.56
2022-07-29T08:05:25.859Z,23.52
2022-07-29T08:07:53.855Z,23.44
2022-07-29T08:10:37.052Z,23.51
2022-07-29T08:13:05.510Z,23.63
2022-07-29T08:16:31.841Z,23.78
2022-07-29T08:18:52.767Z,23.99
2022-07-29T08:22:12.819Z,24.14
2022-07-29T08:24:53.204Z,24.30
2022-07-29T08:27:45.262Z,24.29
2022-07-29T08:30:13.471Z,24.49
2022-07-29T08:35:36.371Z,24.44
2022-07-29T08:38:39.313Z,24.62
2022-07-29T08:41:07.300Z,24.72
2022-07-29T08:43:41.934Z,24.89
2022-07-29T08:46:15.493Z,25.14
2022-07-29T08:48:43.525Z,25.41
2022-07-29T08:51:14.321Z,25.66
2022-07-29T08:53:42.781Z,25.87
2022-07-29T08:56:13.459Z,26.07
2022-07-29T08:59:11.661Z,26.25
2022-07-29T09:01:47.411Z,26.19
2022-07-29T09:04:15.433Z,26.49
2022-07-29T09:07:00.424Z,26.56
2022-07-29T09:09:55.691Z,26.64
2022-07-29T09:12:29.350Z,26.73
2022-07-29T09:15:11.350Z,26.80
2022-07-29T09:17:42.665Z,26.88
2022-07-29T09:20:26.166Z,26.90
2022-07-29T09:23:08.403Z,27.05
2022-07-29T09:25:49.452Z,27.08
2022-07-29T09:28:18.549Z,27.13
2022-07-29T09:31:17.018Z,27.22
2022-07-29T09:33:45.140Z,27.26
2022-07-29T09:36:32.027Z,27.31
2022-07-29T09:39:00.943Z,27.34
2022-07-29T09:41:42.997Z,27.51
2022-07-29T09:47:03.631Z,27.77
2022-07-29T09:49:42.597Z,27.97
2022-07-29T09:52:12.169Z,28.13
2022-07-29T09:54:55.275Z,28.30
2022-07-29T09:57:31.262Z,28.52
2022-07-29T10:00:00.576Z,28.65
2022-07-29T10:02:46.310Z,28.77
2022-07-29T10:05:22.047Z,28.82
2022-07-29T10:08:25.074Z,28.82
2022-07-29T10:11:13.945Z,28.80
2022-07-29T10:13:58.397Z,28.77
2022-07-29T10:16:28.234Z,28.59
2022-07-29T10:19:13.450Z,28.84
2022-07-29T10:21:44.214Z,28.93
2022-07-29T10:24:21.221Z,29.01
2022-07-29T10:26:49.181Z,28.94
2022-07-29T10:29:17.131Z,29.01
2022-07-29T10:31:49.537Z,29.07
2022-07-29T10:34:22.437Z,29.13
2022-07-29T10:37:09.040Z,29.29
2022-07-29T10:39:49.702Z,29.33
2022-07-29T10:42:20.372Z,29.34
2022-07-29T10:45:01.468Z,29.34
2022-07-29T10:47:38.212Z,29.35
2022-07-29T10:50:11.672Z,29.29
2022-07-29T10:52:58.579Z,29.25
2022-07-29T10:55:48.538Z,29.27
2022-07-29T10:59:04.509Z,29.27
2022-07-29T11:02:35.506Z,28.92
2022-07-29T11:05:02.217Z,29.28
2022-07-29T11:07:41.611Z,29.38
2022-07-29T11:14:10.410Z,29.79
2022-07-29T11:17:08.187Z,29.86
2022-07-29T11:19:40.318Z,29.87
2022-07-29T11:22:43.136Z,30.07
2022-07-29T11:25:42.927Z,30.22
2022-07-29T11:28:58.546Z,30.43
2022-07-29T11:32:25.684Z,30.57
2022-07-29T11:35:17.508Z,30.61
2022-07-29T11:38:29.289Z,30.42
2022-07-29T11:41:21.873Z,30.28
2022-07-29T11:43:50.867Z,30.10
2022-07-29T11:46:24.960Z,30.03
2022-07-29T11:48:53.237Z,29.88
2022-07-29T11:51:32.910Z,29.87
2022-07-29T11:54:27.431Z,30.11
2022-07-29T11:57:22.019Z,30.31
2022-07-29T11:59:50.825Z,30.97
2022-07-29T12:02:37.642Z,31.53
2022-07-29T12:05:10.717Z,31.92
2022-07-29T12:10:30.461Z,32.21
2022-07-29T12:15:46.827Z,32.39
2022-07-29T12:18:19.554Z,32.65
2022-07-29T12:20:58.446Z,33.00
2022-07-29T12:23:29.424Z,33.24
2022-07-29T12:26:07.547Z,33.42
2022-07-29T12:29:33.771Z,33.57
2022-07-29T12:35:23.251Z,34.21
2022-07-29T12:37:52.620Z,34.20
2022-07-29T12:40:20.603Z,34.32
2022-07-29T12:43:11.379Z,34.51
2022-07-29T12:45:58.191Z,34.69
2022-07-29T12:48:36.186Z,34.76
2022-07-29T12:51:04.928Z,34.82
2022-07-29T12:53:32.927Z,34.79
2022-07-29T12:56:08.054Z,34.90
2022-07-29T12:59:23.598Z,35.11
2022-07-29T13:05:13.664Z,35.63
2022-07-29T13:07:54.951Z,35.99
2022-07-29T13:10:25.797Z,35.81
2022-07-29T13:13:07.092Z,35.32
2022-07-29T13:15:36.574Z,35.03
2022-07-29T13:18:42.961Z,34.88
2022-07-29T13:21:14.122Z,34.59
2022-07-29T13:23:42.189Z,34.26
2022-07-29T13:26:27.249Z,33.93
2022-07-29T13:28:55.644Z,33.62
2022-07-29T13:31:25.157Z,33.37
2022-07-29T13:33:53.094Z,33.13
2022-07-29T13:39:32.289Z,33.10
2022-07-29T13:42:00.818Z,33.22
2022-07-29T13:44:29.099Z,33.55
2022-07-29T13:47:17.170Z,33.89
2022-07-29T13:49:48.266Z,34.56
2022-07-29T13:52:16.552Z,34.96
2022-07-29T13:54:44.520Z,35.29
2022-07-29T13:57:12.546Z,35.55
2022-07-29T13:59:40.504Z,35.77
2022-07-29T14:02:09.965Z,35.58
2022-07-29T14:04:39.673Z,35.30
2022-07-29T14:07:07.878Z,35.41
2022-07-29T14:09:41.541Z,35.57
2022-07-29T14:12:12.729Z,35.51
2022-07-29T14:14:40.735Z,35.60
2022-07-29T14:17:10.351Z,35.70
2022-07-29T14:19:39.102Z,35.84
2022-07-29T14:22:07.388Z,35.86
2022-07-29T14:24:37.130Z,35.80
2022-07-29T14:27:05.719Z,35.71
2022-07-29T14:29:37.693Z,35.51
2022-07-29T14:32:07.314Z,35.38
2022-07-29T14:34:36.822Z,35.23
2022-07-29T14:37:06.314Z,35.01
2022-07-29T14:39:36.925Z,34.66
2022-07-29T14:42:07.749Z,34.45
2022-07-29T14:44:35.861Z,34.27
2022-07-29T14:47:07.773Z,34.06
2022-07-29T14:49:37.511Z,33.73
2022-07-29T14:52:05.989Z,33.46
2022-07-29T14:54:34.021Z,33.22
2022-07-29T14:57:01.970Z,32.68
2022-07-29T14:59:49.446Z,32.51
2022-07-29T15:02:17.427Z,32.80
2022-07-29T15:04:55.635Z,32.77
2022-07-29T15:07:23.832Z,32.73
2022-07-29T15:09:51.779Z,32.55
2022-07-29T15:12:19.815Z,32.36
2022-07-29T15:14:47.761Z,32.36
2022-07-29T15:17:15.782Z,32.38
2022-07-29T15:19:45.042Z,32.62
2022-07-29T15:22:14.520Z,32.94
2022-07-29T15:24:42.455Z,33.32
2022-07-29T15:27:14.969Z,33.75
2022-07-29T15:29:43.210Z,34.03
2022-07-29T15:32:11.274Z,34.31
2022-07-29T15:34:39.279Z,34.53
2022-07-29T15:37:07.242Z,34.70
2022-07-29T15:39:36.544Z,34.60
2022-07-29T15:42:04.853Z,34.61
2022-07-29T15:44:32.942Z,34.92
2022-07-29T15:47:07.416Z,35.00
2022-07-29T15:49:48.700Z,34.95
2022-07-29T15:52:18.214Z,35.00
2022-07-29T15:54:51.446Z,35.09
2022-07-29T15:57:19.414Z,35.39
2022-07-29T15:59:47.352Z,35.74
2022-07-29T16:02:43.547Z,36.04
2022-07-29T16:08:39.479Z,36.61
2022-07-29T16:11:08.928Z,36.62
2022-07-29T16:13:36.913Z,36.52
2022-07-29T16:16:05.159Z,36.48
2022-07-29T16:18:33.076Z,36.35
2022-07-29T16:21:01.293Z,36.15
2022-07-29T16:23:29.479Z,36.05
2022-07-29T16:26:01.286Z,36.11
2022-07-29T16:28:31.439Z,36.14
2022-07-29T16:30:59.596Z,36.29
2022-07-29T16:33:28.307Z,36.33
2022-07-29T16:36:16.234Z,36.39
2022-07-29T16:38:46.980Z,36.16
2022-07-29T16:41:24.922Z,36.08
2022-07-29T16:43:55.321Z,36.12
2022-07-29T16:46:23.335Z,36.03
2022-07-29T16:48:53.931Z,35.53
2022-07-29T16:51:25.305Z,34.77
2022-07-29T16:53:53.262Z,34.16
2022-07-29T16:56:21.387Z,33.62
2022-07-29T16:58:49.429Z,33.03
2022-07-29T17:01:19.883Z,32.46
2022-07-29T17:04:04.844Z,31.99
2022-07-29T17:06:35.112Z,31.58
2022-07-29T17:09:03.314Z,31.29
2022-07-29T17:11:52.658Z,31.06
2022-07-29T17:14:24.337Z,30.99
2022-07-29T17:17:01.254Z,31.23
2022-07-29T17:19:31.009Z,31.66
2022-07-29T17:22:07.026Z,32.11
2022-07-29T17:24:41.433Z,32.51
2022-07-29T17:27:09.841Z,32.78
2022-07-29T17:29:38.705Z,33.03
2022-07-29T17:32:09.082Z,32.99
2022-07-29T17:34:37.221Z,32.75
2022-07-29T17:37:05.251Z,32.55
2022-07-29T17:39:35.075Z,32.27
2022-07-29T17:42:03.131Z,31.98
2022-07-29T17:44:31.082Z,31.43
2022-07-29T17:47:06.412Z,30.81
2022-07-29T17:49:52.298Z,30.49
2022-07-29T17:52:20.591Z,30.19
2022-07-29T17:54:49.326Z,29.90
2022-07-29T17:57:17.305Z,29.58
2022-07-29T17:59:45.270Z,29.36
2022-07-29T18:02:14.428Z,29.16
2022-07-29T18:04:43.833Z,28.87
2022-07-29T18:07:12.025Z,28.70
2022-07-29T18:09:40.150Z,28.53
2022-07-29T18:12:09.161Z,28.33
2022-07-29T18:14:37.273Z,28.10
2022-07-29T18:17:06.495Z,27.94
2022-07-29T18:19:34.500Z,27.79
2022-07-29T18:22:05.347Z,27.61
2022-07-29T18:24:33.617Z,27.53
2022-07-29T18:27:01.957Z,27.66
2022-07-29T18:29:30.437Z,28.14
2022-07-29T18:31:59.903Z,28.61
2022-07-29T18:34:28.170Z,28.94
2022-07-29T18:36:56.366Z,29.12
2022-07-29T18:39:25.996Z,28.80
2022-07-29T18:41:53.901Z,28.44
2022-07-29T18:44:22.884Z,28.12
2022-07-29T18:46:51.474Z,27.89
2022-07-29T18:49:19.985Z,27.72
2022-07-29T18:51:48.114Z,27.49
2022-07-29T18:54:17.379Z,27.31
2022-07-29T18:56:46.894Z,27.17
2022-07-29T18:59:23.437Z,27.02
2022-07-29T19:01:51.371Z,26.88
2022-07-29T19:04:19.902Z,26.68
2022-07-29T19:06:47.864Z,26.55
2022-07-29T19:09:17.268Z,26.46
2022-07-29T19:11:46.653Z,26.33
2022-07-29T19:14:14.647Z,26.26
2022-07-29T19:16:45.660Z,26.16
2022-07-29T19:19:17.426Z,26.08
2022-07-29T19:21:47.054Z,25.99
2022-07-29T19:24:15.865Z,25.92
2022-07-29T19:26:46.828Z,25.86
2022-07-29T19:29:16.311Z,25.78
2022-07-29T19:31:44.538Z,25.69
2022-07-29T19:34:12.689Z,25.61
2022-07-29T19:36:41.829Z,25.55
2022-07-29T19:39:09.816Z,25.46
2022-07-29T19:41:37.973Z,25.36
2022-07-29T19:44:06.141Z,25.29
2022-07-29T19:46:35.578Z,25.24
2022-07-29T19:49:08.827Z,25.15
2022-07-29T19:51:37.208Z,25.09
2022-07-29T19:54:05.944Z,25.05
2022-07-29T19:56:33.983Z,24.98
2022-07-29T19:59:02.422Z,24.94
2022-07-29T20:01:33.094Z,24.86
2022-07-29T20:04:02.538Z,24.75
2022-07-29T20:06:30.572Z,24.69
2022-07-29T20:08:59.122Z,24.63
2022-07-29T20:11:29.701Z,24.61
2022-07-29T20:13:57.766Z,24.57
2022-07-29T20:16:25.785Z,24.51
2022-07-29T20:18:53.783Z,24.47
2022-07-29T20:21:23.103Z,24.42
2022-07-29T20:23:51.086Z,24.37
2022-07-29T20:26:19.110Z,24.31
2022-07-29T20:28:49.471Z,24.23
2022-07-29T20:31:18.817Z,24.17
2022-07-29T20:33:46.868Z,24.12
2022-07-29T20:36:14.970Z,24.13
2022-07-29T20:38:44.353Z,24.09
2022-07-29T20:41:12.285Z,24.07
2022-07-29T20:43:40.231Z,24.04
2022-07-29T20:46:08.303Z,24.02
2022-07-29T20:48:36.294Z,24.01
2022-07-29T20:51:04.425Z,23.98
2022-07-29T20:53:33.760Z,23.97
2022-07-29T20:56:03.146Z,23.95
2022-07-29T20:58:32.627Z,23.93
2022-07-29T21:01:00.636Z,23.92
2022-07-29T21:03:28.589Z,23.87
2022-07-29T21:05:56.552Z,23.83
2022-07-29T21:08:24.616Z,23.77
2022-07-29T21:10:52.797Z,23.70
2022-07-29T21:13:33.001Z,23.63
2022-07-29T21:16:04.318Z,23.53
2022-07-29T21:21:36.549Z,23.37
2022-07-29T21:24:04.866Z,23.30
2022-07-29T21:26:32.847Z,23.28
2022-07-29T21:29:08.823Z,23.25
2022-07-29T21:31:36.812Z,23.24
2022-07-29T21:34:04.763Z,23.22
2022-07-29T21:36:49.040Z,23.19
2022-07-29T21:39:17.155Z,23.18
2022-07-29T21:42:03.075Z,23.14
2022-07-29T21:44:32.402Z,23.11
2022-07-29T21:47:00.634Z,23.09
2022-07-29T21:49:28.881Z,23.04
2022-07-29T21:51:56.852Z,23.00
2022-07-29T21:54:24.784Z,22.93
2022-07-29T21:57:27.752Z,22.87
2022-07-29T22:00:00.840Z,22.76
2022-07-29T22:02:30.770Z,22.71
2022-07-29T22:04:58.714Z,22.66
2022-07-29T22:07:56.453Z,22.67
2022-07-29T22:10:14.561Z,22.62
2022-07-29T22:12:42.528Z,22.57
2022-07-29T22:15:12.260Z,22.54
2022-07-29T22:17:42.270Z,22.49
2022-07-29T22:20:11.081Z,22.45
2022-07-29T22:22:39.103Z,22.41
2022-07-29T22:25:08.149Z,22.26
2022-07-29T22:27:36.106Z,22.33
2022-07-29T22:30:04.289Z,22.28
2022-07-29T22:32:33.661Z,22.19
2022-07-29T22:35:01.583Z,22.24
2022-07-29T22:37:29.520Z,22.20
2022-07-29T22:39:57.527Z,22.19
2022-07-29T22:42:25.587Z,22.17
2022-07-29T22:44:53.569Z,22.15
2022-07-29T22:47:46.653Z,22.11
2022-07-29T22:50:11.262Z,22.06
2022-07-29T22:52:39.223Z,22.00
2022-07-29T22:55:07.973Z,21.96
2022-07-29T22:57:35.912Z,21.91
2022-07-29T23:00:04.001Z,21.87
2022-07-29T23:02:31.904Z,21.77
2022-07-29T23:04:59.807Z,21.85
2022-07-29T23:07:29.147Z,21.82
2022-07-29T23:09:57.077Z,21.80
2022-07-29T23:12:25.036Z,21.77
2022-07-29T23:14:52.964Z,21.77
2022-07-29T23:17:20.955Z,21.75
2022-07-29T23:19:48.949Z,21.74
2022-07-29T23:22:16.921Z,21.71
2022-07-29T23:24:47.978Z,21.61
2022-07-29T23:27:15.896Z,21.66
2022-07-29T23:29:43.829Z,21.60
2022-07-29T23:32:32.902Z,21.52
2022-07-29T23:35:00.810Z,21.48
2022-07-29T23:37:28.853Z,21.44
2022-07-29T23:39:58.206Z,21.16
2022-07-29T23:42:26.225Z,21.36
2022-07-29T23:44:54.097Z,21.35
2022-07-29T23:47:22.113Z,21.23
2022-07-29T23:49:50.302Z,21.28
2022-07-29T23:52:18.269Z,21.25
2022-07-29T23:54:46.200Z,21.23
2022-07-29T23:57:15.617Z,21.23
2022-07-29T23:59:43.589Z,21.12
